Ship Status Report: callsign AMOUK21

sailwx.info

Track history (hours):
 
Tides and Currents Weather Stations Pressure Air Temp Water Temp Dewpoint Dewpoint Depression Visibility Wind Speed Wind Dir Waves Ship Positions

Callsign AMOUK21 (name unknown)

Last reported at 2016-Feb-09 14:00 UTC. Time now 2016-Feb-09 15:57 UTC.
Position N 53°24' W 003°00'.

Barometer 982.2 mb
Air temperature 6.3 ° C
Dewpoint -0.5 ° C

Date/timePositionNaut miles runAvg speedWind from/ knotsBaromVisibWave heightAir tempDewpointWater temp
2016-Feb-09 14:00N 53°24' W 003°00'0 0.0 982.2 6.3-0.5
2016-Feb-09 13:00N 53°24' W 003°00'0 0.0 982.6 5.2-0.9
2016-Feb-09 12:00N 53°24' W 003°00'0 0.0 982.9 5.8-0.7
2016-Feb-09 11:00N 53°24' W 003°00'0 0.0 983.1 5.9 0.3
2016-Feb-09 10:00N 53°24' W 003°00'0 0.0 983.3 4.8 0.1
2016-Feb-09 09:00N 53°24' W 003°00'0 0.0 983.7 3.7-0.3
2016-Feb-09 08:00N 53°24' W 003°00'0 0.0 983.8 3.7-0.5
2016-Feb-09 07:00N 53°24' W 003°00'0 0.0 984.0 4.0-0.5
2016-Feb-09 06:00N 53°24' W 003°00'0 0.0 984.7 4.0-0.5
2016-Feb-09 05:00N 53°24' W 003°00'0 0.0 985.3 4.3-0.1
2016-Feb-09 04:00N 53°24' W 003°00'0 0.0 985.8 4.6 0.4
2016-Feb-09 03:00N 53°24' W 003°00'0 0.0 986.4 5.1 0.6
2016-Feb-09 02:00N 53°24' W 003°00'0 0.0 986.6 5.1 0.9
2016-Feb-09 01:00N 53°24' W 003°00'0 0.0 987.3 6.0 0.8
2016-Feb-09 00:00N 53°24' W 003°00'0 0.0 987.3 6.1 0.6
2016-Feb-08 23:00N 53°24' W 003°00'0 0.0 987.2 6.4 0.7
2016-Feb-08 22:00N 53°24' W 003°00'0 0.0 987.0 6.8 0.9
2016-Feb-08 21:00N 53°24' W 003°00'0 0.0 986.6 6.9 1.9
2016-Feb-08 17:00N 53°24' W 003°00'0 0.0 981.8 7.6 5.2
2016-Feb-08 16:00N 53°24' W 003°00'0 0.0 980.1 7.8 5.2
2016-Feb-08 15:00N 53°24' W 003°00'0 0.0 978.2 7.2 5.8
2016-Feb-08 14:00N 53°24' W 003°00'0 0.0 976.4 7.1 4.9
2016-Feb-08 13:00N 53°24' W 003°00'0 0.0 975.4 8.4 4.3
2016-Feb-08 12:00N 53°24' W 003°00'0 0.0 974.2 8.3 4.1
2016-Feb-08 11:00N 53°24' W 003°00'0 0.0 973.1 7.8 3.9
2016-Feb-08 10:00N 53°24' W 003°00'0 0.0 971.8 7.4 3.7
2016-Feb-08 09:00N 53°24' W 003°00'0 0.0 971.5 7.0 3.4
2016-Feb-08 07:00N 53°24' W 003°00'0 0.0 971.8 7.3 3.1
2016-Feb-08 05:00N 53°24' W 003°00'0 0.0 973.6 6.8 2.7
2016-Feb-08 03:00N 53°24' W 003°00'0 0.0 974.6 6.7 2.8
2016-Feb-08 00:00N 53°24' W 003°00'0 0.0 976.2 6.2 3.6
2016-Feb-07 20:00N 53°24' W 003°00'0 0.0 977.0 5.6 3.9
2016-Feb-07 19:00N 53°24' W 003°00'0 0.0 978.8 5.8 3.4
2016-Feb-07 16:00N 53°24' W 003°00'0 0.0 985.2 7.3 1.1
2016-Feb-07 13:00N 53°24' W 003°00'0 0.0 987.7 8.5 1.4
2016-Feb-07 11:00N 53°24' W 003°00'0 0.0 987.1 7.7 2.3
2016-Feb-07 04:00N 53°24' W 003°00'0 0.0 983.4 6.1 1.1
2016-Feb-07 03:00N 53°24' W 003°00'0 0.0 983.2 6.1 1.3
2016-Feb-07 02:00N 53°24' W 003°00'0 0.0 982.9 6.2 1.9
2016-Feb-07 01:00N 53°24' W 003°00'0 0.0 982.6 6.4 1.9
2016-Feb-07 00:00N 53°24' W 003°00'0 0.0 982.4 7.2 1.1
2016-Feb-06 22:00N 53°24' W 003°00'0 0.0 981.6 7.6 2.7
2016-Feb-06 21:00N 53°24' W 003°00'0 0.0 981.2 8.2 3.7
2016-Feb-06 19:00N 53°24' W 003°00'0 0.0 980.5 8.3 5.4
2016-Feb-06 18:00N 53°24' W 003°00'0 0.0 980.1 9.1 6.6
2016-Feb-06 17:00N 53°24' W 003°00'0 0.0 980.1 9.7 6.6
2016-Feb-06 16:00N 53°24' W 003°00'0 0.0 980.9 9.3 7.0
2016-Feb-06 15:00N 53°24' W 003°00'0 0.0 982.8 8.9 6.8
2016-Feb-06 14:00N 53°24' W 003°00'0 0.0 984.4 8.3 6.6
2016-Feb-06 13:00N 53°24' W 003°00'0 0.0 986.3 7.9 6.5
2016-Feb-06 11:00N 53°24' W 003°00'0 0.0 989.9 6.9 5.8
2016-Feb-06 10:00N 53°24' W 003°00'0 0.0 992.1 6.1 4.9
2016-Feb-06 09:00N 53°24' W 003°00'0 0.0 994.4 5.3 3.6
2016-Feb-06 08:00N 53°24' W 003°00'0 0.0 996.0 5.1 2.9
2016-Feb-06 07:00N 53°24' W 003°00'0 0.0 997.3 5.0 2.7
2016-Feb-06 06:00N 53°24' W 003°00'0 0.0 998.9 5.2 2.7
2016-Feb-06 05:00N 53°24' W 003°00'0 0.0 1000.4 4.4 2.1
2016-Feb-06 04:00N 53°24' W 003°00'0 0.0 1000.7 4.9 2.3
2016-Feb-06 03:00N 53°24' W 003°00'0 0.0 1002.1 5.2 1.9
2016-Feb-06 02:00N 53°24' W 003°00'0 0.0 1002.6 5.3 2.2
2016-Feb-06 01:00N 53°24' W 003°00'0 0.0 1004.2 5.7 3.8
2016-Feb-06 00:00N 53°24' W 003°00'0 0.0 1004.2 5.4 4.0
2016-Feb-05 23:00N 53°24' W 003°00'0 0.0 1004.4 5.8 4.1
2016-Feb-05 22:00N 53°24' W 003°00'0 0.0 1003.8 5.8 4.0
2016-Feb-05 21:00N 53°24' W 003°00'0 0.0 1003.9 6.4 5.2
2016-Feb-05 20:00N 53°24' W 003°00'0 0.0 1003.7 6.9 5.0
2016-Feb-05 19:00N 53°24' W 003°00'0 0.0 1003.5 9.9 6.2
2016-Feb-05 18:00N 53°24' W 003°00'0 0.0 1004.5 10.0 5.8
2016-Feb-05 17:00N 53°24' W 003°00'0 0.0 1005.3 9.7 6.3
2016-Feb-05 13:00N 53°24' W 003°00'0 0.0 1009.9 10.8 5.4
2016-Feb-05 11:00N 53°24' W 003°00'0 0.0 1012.7 10.5 5.2
2016-Feb-05 10:00N 53°24' W 003°00'0 0.0 1013.5 10.4 5.0
2016-Feb-05 09:00N 53°24' W 003°00'0 0.0 1014.2 10.1 4.6
2016-Feb-05 08:00N 53°24' W 003°00'0 0.0 1015.2 10.3 4.5
2016-Feb-05 07:00N 53°24' W 003°00'0 0.0 1015.6 10.1 5.1
2016-Feb-05 05:00N 53°24' W 003°00'0 0.0 1016.8 9.9 5.2
2016-Feb-05 03:00N 53°24' W 003°00'0 0.0 1018.8 9.7 5.8
2016-Feb-05 02:00N 53°24' W 003°00'0 0.0 1019.8 10.0 6.8
2016-Feb-05 01:00N 53°24' W 003°00'0 0.0 1020.2 10.5 7.0
2016-Feb-05 00:00N 53°24' W 003°00'0 0.0 1021.4 10.5 7.7
2016-Feb-04 23:00N 53°24' W 003°00'0 0.0 1021.8 10.4 7.7
2016-Feb-04 22:00N 53°24' W 003°00'0 0.0 1022.2 10.4 8.5
2016-Feb-04 21:00N 53°24' W 003°00'0 0.0 1022.5 10.2 8.8
2016-Feb-04 20:00N 53°24' W 003°00'0 0.0 1023.0 10.5 8.7
2016-Feb-04 19:00N 53°24' W 003°00'0 0.0 1023.2 10.7 8.2
2016-Feb-04 18:00N 53°24' W 003°00'0 0.0 1023.4 10.8 8.2
2016-Feb-04 17:00N 53°24' W 003°00'0 0.0 1023.6 10.7 8.1
2016-Feb-04 16:00N 53°24' W 003°00'0 0.0 1023.8 10.8 8.2
2016-Feb-04 15:00N 53°24' W 003°00'0 0.0 1023.7 10.9 8.3
2016-Feb-04 14:00N 53°24' W 003°00'0 0.0 1023.8 11.1 8.4
2016-Feb-04 12:00N 53°24' W 003°00'0 0.0 1023.7 10.8 8.7
2016-Feb-04 10:00N 53°24' W 003°00'0 0.0 1022.9 10.1 8.6
2016-Feb-04 07:00N 53°24' W 003°00'0 0.0 1020.6 9.7 8.3
2016-Feb-04 06:00N 53°24' W 003°00'0 0.0 1019.9 9.2 8.1
2016-Feb-04 05:00N 53°24' W 003°00'0 0.0 1019.8 9.4 7.5
2016-Feb-04 04:00N 53°24' W 003°00'0 0.0 1019.5 9.3 7.3
2016-Feb-04 00:00N 53°24' W 003°00'0 0.0 1023.4 5.9 1.4
2016-Feb-03 23:00N 53°24' W 003°00'0 0.0 1024.4 4.9 1.2
2016-Feb-03 21:00N 53°24' W 003°00'0 0.0 1025.7 5.7 3.0
2016-Feb-03 18:00N 53°24' W 003°00'0 0.0 1025.4 6.1 2.7
2016-Feb-03 17:00N 53°24' W 003°00'0 0.0 1025.1 7.2 2.1
2016-Feb-03 16:00N 53°24' W 003°00'0 0.0 1024.6 7.7 1.8
2016-Feb-03 13:00N 53°24' W 003°00'0 0.0 1022.3 8.4 3.2
2016-Feb-03 12:00N 53°24' W 003°00'0 0.0 1021.6 8.2 1.0
2016-Feb-03 11:00N 53°24' W 003°00'0 0.0 1020.1 8.1 2.3
2016-Feb-03 09:00N 53°24' W 003°00'0 0.0 1017.0 6.7 3.1
2016-Feb-03 08:00N 53°24' W 003°00'0 0.0 1015.6 6.2 2.8
2016-Feb-03 03:00N 53°24' W 003°00'0 0.0 1014.2 5.1-0.7
2016-Feb-03 00:00N 53°24' W 003°00'0 0.0 1014.4 5.5-0.6
2016-Feb-02 20:00N 53°24' W 003°00'0 0.0 1013.3 5.3-1.8
2016-Feb-02 17:00N 53°24' W 003°00'0 0.0 1011.7 6.9 1.5
2016-Feb-02 15:00N 53°24' W 003°00'0 0.0 1010.6 7.4 1.2
2016-Feb-02 14:00N 53°24' W 003°00'0 0.0 1010.1 6.9 1.3
2016-Feb-02 13:00N 53°24' W 003°00'0 0.0 1010.0 7.2 1.0
2016-Feb-02 12:00N 53°24' W 003°00'0 0.0 1009.5 7.2 0.3
2016-Feb-02 11:00N 53°24' W 003°00'0 0.0 1009.0 7.6-0.1
2016-Feb-02 10:00N 53°24' W 003°00'0 0.0 1009.1 7.4-0.3
2016-Feb-02 09:00N 53°24' W 003°00'0 0.0 1008.6 6.8-0.6
2016-Feb-02 08:00N 53°24' W 003°00'0 0.0 1008.3 6.7-0.7
2016-Feb-02 07:00N 53°24' W 003°00'0 0.0 1008.1 7.1-1.1
2016-Feb-02 04:00N 53°24' W 003°00'0 0.0 1008.6 7.5-0.9
2016-Feb-02 03:00N 53°24' W 003°00'0 0.0 1008.5 7.8-1.1
2016-Feb-02 02:00N 53°24' W 003°00'0 0.0 1008.4 8.0-2.1
2016-Feb-02 00:00N 53°24' W 003°00'0 0.0 1008.3 8.0-0.2
2016-Feb-01 23:00N 53°24' W 003°00'0 0.0 1008.1 8.9-0.7
2016-Feb-01 22:00N 53°24' W 003°00'0 0.0 1008.1 9.0 0.3
2016-Feb-01 20:00N 53°24' W 003°00'0 0.0 1007.9 9.4-0.4
2016-Feb-01 18:00N 53°24' W 003°00'0 0.0 1006.7 10.1 2.7
2016-Feb-01 17:00N 53°24' W 003°00'0 0.0 1006.7 10.6 3.4
2016-Feb-01 16:00N 53°24' W 003°00'0 0.0 1006.3 11.2 3.9
2016-Feb-01 15:00N 53°24' W 003°00'0 0.0 1005.9 12.3 2.1
2016-Feb-01 14:00N 53°24' W 003°00'0 0.0 1005.8 12.5 4.9
2016-Feb-01 13:00N 53°24' W 003°00'0 0.0 1005.9 12.8 4.9
2016-Feb-01 12:00N 53°24' W 003°00'0 0.0 1005.7 13.3 5.2
2016-Feb-01 11:00N 53°24' W 003°00'0 0.0 1005.2 13.0 8.4
2016-Feb-01 10:00N 53°24' W 003°00'0 0.0 1005.4 12.7 8.2
2016-Feb-01 09:00N 53°24' W 003°00'0 0.0 1005.9 12.3 8.1
2016-Feb-01 08:00N 53°24' W 003°00'0 0.0 1007.0 11.8 7.8
2016-Feb-01 07:00N 53°24' W 003°00'0 0.0 1007.6 11.4 7.3
2016-Feb-01 06:00N 53°24' W 003°00'0 0.0 1007.9 11.6 6.7
2016-Feb-01 04:00N 53°24' W 003°00'0 0.0 1008.7 11.9 7.6
2016-Feb-01 03:00N 53°24' W 003°00'0 0.0 1009.1 12.2 8.5
2016-Feb-01 02:00N 53°24' W 003°00'0 0.0 1008.9 12.7 9.2
2016-Feb-01 01:00N 53°24' W 003°00'0 0.0 1008.6 12.6 9.2
2016-Feb-01 00:00N 53°24' W 003°00'0 0.0 1008.5 13.3 9.6
2016-Jan-31 23:00N 53°24' W 003°00'0 0.0 1007.4 12.2 9.3
2016-Jan-31 22:00N 53°24' W 003°00'0 0.0 1006.9 13.2 9.5
2016-Jan-31 21:00N 53°24' W 003°00'0 0.0 1006.1 12.9 9.4
2016-Jan-31 20:00N 53°24' W 003°00'0 0.0 1005.3 12.7 9.5
2016-Jan-31 19:00N 53°24' W 003°00'0 0.0 1004.3 12.210.6
2016-Jan-31 18:00N 53°24' W 003°00'0 0.0 1003.7 11.310.6
2016-Jan-31 17:00N 53°24' W 003°00'0 0.0 1003.0 11.010.2
2016-Jan-31 16:00N 53°24' W 003°00'0 0.0 1002.6 11.310.1
2016-Jan-31 12:00N 53°24' W 003°00'0 0.0 1001.0 5.2 4.6
2016-Jan-31 08:00N 53°24' W 003°00'0 0.0 1003.6 4.2 2.1
2016-Jan-31 07:00N 53°24' W 003°00'0 0.0 1004.2 5.0 0.8
2016-Jan-31 06:00N 53°24' W 003°00'0 0.0 1004.9 5.6 0.3
2016-Jan-31 05:00N 53°24' W 003°00'0 0.0 1005.7 5.4 0.5
2016-Jan-31 04:00N 53°24' W 003°00'0 0.0 1006.4 4.6 0.1
2016-Jan-31 03:00N 53°24' W 003°00'0 0.0 1007.1 4.8-0.0
2016-Jan-31 02:00N 53°24' W 003°00'0 0.0 1007.7 5.0-0.3
2016-Jan-31 01:00N 53°24' W 003°00'0 0.0 1007.5 4.7-0.4
2016-Jan-31 00:00N 53°24' W 003°00'0 0.0 1007.3 4.7-0.9
2016-Jan-30 23:00N 53°24' W 003°00'0 0.0 1007.6 5.1-0.8
2016-Jan-30 22:00N 53°24' W 003°00'0 0.0 1007.1 5.1-1.1
2016-Jan-30 21:00N 53°24' W 003°00'0 0.0 1007.8 5.4-0.9
2016-Jan-30 20:00N 53°24' W 003°00'0 0.0 1007.6 5.4-0.9
2016-Jan-30 19:00N 53°24' W 003°00'0 0.0 1007.4 5.4-1.6
2016-Jan-30 17:00N 53°24' W 003°00'   1006.6 5.8-1.8
Track history (hours):
 
Tides and Currents Weather Stations Pressure Air Temp Water Temp Dewpoint Dewpoint Depression Visibility Wind Speed Wind Dir Waves Ship Positions

Callsign AMOUK21 (name unknown)

Last reported at 2016-Feb-09 14:00 UTC. Time now 2016-Feb-09 15:57 UTC.
Position N 53°24' W 003°00'.

Barometer 982.2 mb
Air temperature 6.3 ° C
Dewpoint -0.5 ° C

Date/timePositionNaut miles runAvg speedWind from/ knotsBaromVisibWave heightAir tempDewpointWater temp
2016-Feb-09 14:00N 53°24' W 003°00'0 0.0 982.2 6.3-0.5
2016-Feb-09 13:00N 53°24' W 003°00'0 0.0 982.6 5.2-0.9
2016-Feb-09 12:00N 53°24' W 003°00'0 0.0 982.9 5.8-0.7
2016-Feb-09 11:00N 53°24' W 003°00'0 0.0 983.1 5.9 0.3
2016-Feb-09 10:00N 53°24' W 003°00'0 0.0 983.3 4.8 0.1
2016-Feb-09 09:00N 53°24' W 003°00'0 0.0 983.7 3.7-0.3
2016-Feb-09 08:00N 53°24' W 003°00'0 0.0 983.8 3.7-0.5
2016-Feb-09 07:00N 53°24' W 003°00'0 0.0 984.0 4.0-0.5
2016-Feb-09 06:00N 53°24' W 003°00'0 0.0 984.7 4.0-0.5
2016-Feb-09 05:00N 53°24' W 003°00'0 0.0 985.3 4.3-0.1
2016-Feb-09 04:00N 53°24' W 003°00'0 0.0 985.8 4.6 0.4
2016-Feb-09 03:00N 53°24' W 003°00'0 0.0 986.4 5.1 0.6
2016-Feb-09 02:00N 53°24' W 003°00'0 0.0 986.6 5.1 0.9
2016-Feb-09 01:00N 53°24' W 003°00'0 0.0 987.3 6.0 0.8
2016-Feb-09 00:00N 53°24' W 003°00'0 0.0 987.3 6.1 0.6
2016-Feb-08 23:00N 53°24' W 003°00'0 0.0 987.2 6.4 0.7
2016-Feb-08 22:00N 53°24' W 003°00'0 0.0 987.0 6.8 0.9
2016-Feb-08 21:00N 53°24' W 003°00'0 0.0 986.6 6.9 1.9
2016-Feb-08 17:00N 53°24' W 003°00'0 0.0 981.8 7.6 5.2
2016-Feb-08 16:00N 53°24' W 003°00'0 0.0 980.1 7.8 5.2
2016-Feb-08 15:00N 53°24' W 003°00'0 0.0 978.2 7.2 5.8
2016-Feb-08 14:00N 53°24' W 003°00'0 0.0 976.4 7.1 4.9
2016-Feb-08 13:00N 53°24' W 003°00'0 0.0 975.4 8.4 4.3
2016-Feb-08 12:00N 53°24' W 003°00'0 0.0 974.2 8.3 4.1
2016-Feb-08 11:00N 53°24' W 003°00'0 0.0 973.1 7.8 3.9
2016-Feb-08 10:00N 53°24' W 003°00'0 0.0 971.8 7.4 3.7
2016-Feb-08 09:00N 53°24' W 003°00'0 0.0 971.5 7.0 3.4
2016-Feb-08 07:00N 53°24' W 003°00'0 0.0 971.8 7.3 3.1
2016-Feb-08 05:00N 53°24' W 003°00'0 0.0 973.6 6.8 2.7
2016-Feb-08 03:00N 53°24' W 003°00'0 0.0 974.6 6.7 2.8
2016-Feb-08 00:00N 53°24' W 003°00'0 0.0 976.2 6.2 3.6
2016-Feb-07 20:00N 53°24' W 003°00'0 0.0 977.0 5.6 3.9
2016-Feb-07 19:00N 53°24' W 003°00'0 0.0 978.8 5.8 3.4
2016-Feb-07 16:00N 53°24' W 003°00'0 0.0 985.2 7.3 1.1
2016-Feb-07 13:00N 53°24' W 003°00'0 0.0 987.7 8.5 1.4
2016-Feb-07 11:00N 53°24' W 003°00'0 0.0 987.1 7.7 2.3
2016-Feb-07 04:00N 53°24' W 003°00'0 0.0 983.4 6.1 1.1
2016-Feb-07 03:00N 53°24' W 003°00'0 0.0 983.2 6.1 1.3
2016-Feb-07 02:00N 53°24' W 003°00'0 0.0 982.9 6.2 1.9
2016-Feb-07 01:00N 53°24' W 003°00'0 0.0 982.6 6.4 1.9
2016-Feb-07 00:00N 53°24' W 003°00'0 0.0 982.4 7.2 1.1
2016-Feb-06 22:00N 53°24' W 003°00'0 0.0 981.6 7.6 2.7
2016-Feb-06 21:00N 53°24' W 003°00'0 0.0 981.2 8.2 3.7
2016-Feb-06 19:00N 53°24' W 003°00'0 0.0 980.5 8.3 5.4
2016-Feb-06 18:00N 53°24' W 003°00'0 0.0 980.1 9.1 6.6
2016-Feb-06 17:00N 53°24' W 003°00'0 0.0 980.1 9.7 6.6
2016-Feb-06 16:00N 53°24' W 003°00'0 0.0 980.9 9.3 7.0
2016-Feb-06 15:00N 53°24' W 003°00'0 0.0 982.8 8.9 6.8
2016-Feb-06 14:00N 53°24' W 003°00'0 0.0 984.4 8.3 6.6
2016-Feb-06 13:00N 53°24' W 003°00'0 0.0 986.3 7.9 6.5
2016-Feb-06 11:00N 53°24' W 003°00'0 0.0 989.9 6.9 5.8
2016-Feb-06 10:00N 53°24' W 003°00'0 0.0 992.1 6.1 4.9
2016-Feb-06 09:00N 53°24' W 003°00'0 0.0 994.4 5.3 3.6
2016-Feb-06 08:00N 53°24' W 003°00'0 0.0 996.0 5.1 2.9
2016-Feb-06 07:00N 53°24' W 003°00'0 0.0 997.3 5.0 2.7
2016-Feb-06 06:00N 53°24' W 003°00'0 0.0 998.9 5.2 2.7
2016-Feb-06 05:00N 53°24' W 003°00'0 0.0 1000.4 4.4 2.1
2016-Feb-06 04:00N 53°24' W 003°00'0 0.0 1000.7 4.9 2.3
2016-Feb-06 03:00N 53°24' W 003°00'0 0.0 1002.1 5.2 1.9
2016-Feb-06 02:00N 53°24' W 003°00'0 0.0 1002.6 5.3 2.2
2016-Feb-06 01:00N 53°24' W 003°00'0 0.0 1004.2 5.7 3.8
2016-Feb-06 00:00N 53°24' W 003°00'0 0.0 1004.2 5.4 4.0
2016-Feb-05 23:00N 53°24' W 003°00'0 0.0 1004.4 5.8 4.1
2016-Feb-05 22:00N 53°24' W 003°00'0 0.0 1003.8 5.8 4.0
2016-Feb-05 21:00N 53°24' W 003°00'0 0.0 1003.9 6.4 5.2
2016-Feb-05 20:00N 53°24' W 003°00'0 0.0 1003.7 6.9 5.0
2016-Feb-05 19:00N 53°24' W 003°00'0 0.0 1003.5 9.9 6.2
2016-Feb-05 18:00N 53°24' W 003°00'0 0.0 1004.5 10.0 5.8
2016-Feb-05 17:00N 53°24' W 003°00'0 0.0 1005.3 9.7 6.3
2016-Feb-05 13:00N 53°24' W 003°00'0 0.0 1009.9 10.8 5.4
2016-Feb-05 11:00N 53°24' W 003°00'0 0.0 1012.7 10.5 5.2
2016-Feb-05 10:00N 53°24' W 003°00'0 0.0 1013.5 10.4 5.0
2016-Feb-05 09:00N 53°24' W 003°00'0 0.0 1014.2 10.1 4.6
2016-Feb-05 08:00N 53°24' W 003°00'0 0.0 1015.2 10.3 4.5
2016-Feb-05 07:00N 53°24' W 003°00'0 0.0 1015.6 10.1 5.1
2016-Feb-05 05:00N 53°24' W 003°00'0 0.0 1016.8 9.9 5.2
2016-Feb-05 03:00N 53°24' W 003°00'0 0.0 1018.8 9.7 5.8
2016-Feb-05 02:00N 53°24' W 003°00'0 0.0 1019.8 10.0 6.8
2016-Feb-05 01:00N 53°24' W 003°00'0 0.0 1020.2 10.5 7.0
2016-Feb-05 00:00N 53°24' W 003°00'0 0.0 1021.4 10.5 7.7
2016-Feb-04 23:00N 53°24' W 003°00'0 0.0 1021.8 10.4 7.7
2016-Feb-04 22:00N 53°24' W 003°00'0 0.0 1022.2 10.4 8.5
2016-Feb-04 21:00N 53°24' W 003°00'0 0.0 1022.5 10.2 8.8
2016-Feb-04 20:00N 53°24' W 003°00'0 0.0 1023.0 10.5 8.7
2016-Feb-04 19:00N 53°24' W 003°00'0 0.0 1023.2 10.7 8.2
2016-Feb-04 18:00N 53°24' W 003°00'0 0.0 1023.4 10.8 8.2
2016-Feb-04 17:00N 53°24' W 003°00'0 0.0 1023.6 10.7 8.1
2016-Feb-04 16:00N 53°24' W 003°00'0 0.0 1023.8 10.8 8.2
2016-Feb-04 15:00N 53°24' W 003°00'0 0.0 1023.7 10.9 8.3
2016-Feb-04 14:00N 53°24' W 003°00'0 0.0 1023.8 11.1 8.4
2016-Feb-04 12:00N 53°24' W 003°00'0 0.0 1023.7 10.8 8.7
2016-Feb-04 10:00N 53°24' W 003°00'0 0.0 1022.9 10.1 8.6
2016-Feb-04 07:00N 53°24' W 003°00'0 0.0 1020.6 9.7 8.3
2016-Feb-04 06:00N 53°24' W 003°00'0 0.0 1019.9 9.2 8.1
2016-Feb-04 05:00N 53°24' W 003°00'0 0.0 1019.8 9.4 7.5
2016-Feb-04 04:00N 53°24' W 003°00'0 0.0 1019.5 9.3 7.3
2016-Feb-04 00:00N 53°24' W 003°00'0 0.0 1023.4 5.9 1.4
2016-Feb-03 23:00N 53°24' W 003°00'0 0.0 1024.4 4.9 1.2
2016-Feb-03 21:00N 53°24' W 003°00'0 0.0 1025.7 5.7 3.0
2016-Feb-03 18:00N 53°24' W 003°00'0 0.0 1025.4 6.1 2.7
2016-Feb-03 17:00N 53°24' W 003°00'0 0.0 1025.1 7.2 2.1
2016-Feb-03 16:00N 53°24' W 003°00'0 0.0 1024.6 7.7 1.8
2016-Feb-03 13:00N 53°24' W 003°00'0 0.0 1022.3 8.4 3.2
2016-Feb-03 12:00N 53°24' W 003°00'0 0.0 1021.6 8.2 1.0
2016-Feb-03 11:00N 53°24' W 003°00'0 0.0 1020.1 8.1 2.3
2016-Feb-03 09:00N 53°24' W 003°00'0 0.0 1017.0 6.7 3.1
2016-Feb-03 08:00N 53°24' W 003°00'0 0.0 1015.6 6.2 2.8
2016-Feb-03 03:00N 53°24' W 003°00'0 0.0 1014.2 5.1-0.7
2016-Feb-03 00:00N 53°24' W 003°00'0 0.0 1014.4 5.5-0.6
2016-Feb-02 20:00N 53°24' W 003°00'0 0.0 1013.3 5.3-1.8
2016-Feb-02 17:00N 53°24' W 003°00'0 0.0 1011.7 6.9 1.5
2016-Feb-02 15:00N 53°24' W 003°00'0 0.0 1010.6 7.4 1.2
2016-Feb-02 14:00N 53°24' W 003°00'0 0.0 1010.1 6.9 1.3
2016-Feb-02 13:00N 53°24' W 003°00'0 0.0 1010.0 7.2 1.0
2016-Feb-02 12:00N 53°24' W 003°00'0 0.0 1009.5 7.2 0.3
2016-Feb-02 11:00N 53°24' W 003°00'0 0.0 1009.0 7.6-0.1
2016-Feb-02 10:00N 53°24' W 003°00'0 0.0 1009.1 7.4-0.3
2016-Feb-02 09:00N 53°24' W 003°00'0 0.0 1008.6 6.8-0.6
2016-Feb-02 08:00N 53°24' W 003°00'0 0.0 1008.3 6.7-0.7
2016-Feb-02 07:00N 53°24' W 003°00'0 0.0 1008.1 7.1-1.1
2016-Feb-02 04:00N 53°24' W 003°00'0 0.0 1008.6 7.5-0.9
2016-Feb-02 03:00N 53°24' W 003°00'0 0.0 1008.5 7.8-1.1
2016-Feb-02 02:00N 53°24' W 003°00'0 0.0 1008.4 8.0-2.1
2016-Feb-02 00:00N 53°24' W 003°00'0 0.0 1008.3 8.0-0.2
2016-Feb-01 23:00N 53°24' W 003°00'0 0.0 1008.1 8.9-0.7
2016-Feb-01 22:00N 53°24' W 003°00'0 0.0 1008.1 9.0 0.3
2016-Feb-01 20:00N 53°24' W 003°00'0 0.0 1007.9 9.4-0.4
2016-Feb-01 18:00N 53°24' W 003°00'0 0.0 1006.7 10.1 2.7
2016-Feb-01 17:00N 53°24' W 003°00'0 0.0 1006.7 10.6 3.4
2016-Feb-01 16:00N 53°24' W 003°00'0 0.0 1006.3 11.2 3.9
2016-Feb-01 15:00N 53°24' W 003°00'0 0.0 1005.9 12.3 2.1
2016-Feb-01 14:00N 53°24' W 003°00'0 0.0 1005.8 12.5 4.9
2016-Feb-01 13:00N 53°24' W 003°00'0 0.0 1005.9 12.8 4.9
2016-Feb-01 12:00N 53°24' W 003°00'0 0.0 1005.7 13.3 5.2
2016-Feb-01 11:00N 53°24' W 003°00'0 0.0 1005.2 13.0 8.4
2016-Feb-01 10:00N 53°24' W 003°00'0 0.0 1005.4 12.7 8.2
2016-Feb-01 09:00N 53°24' W 003°00'0 0.0 1005.9 12.3 8.1
2016-Feb-01 08:00N 53°24' W 003°00'0 0.0 1007.0 11.8 7.8
2016-Feb-01 07:00N 53°24' W 003°00'0 0.0 1007.6 11.4 7.3
2016-Feb-01 06:00N 53°24' W 003°00'0 0.0 1007.9 11.6 6.7
2016-Feb-01 04:00N 53°24' W 003°00'0 0.0 1008.7 11.9 7.6
2016-Feb-01 03:00N 53°24' W 003°00'0 0.0 1009.1 12.2 8.5
2016-Feb-01 02:00N 53°24' W 003°00'0 0.0 1008.9 12.7 9.2
2016-Feb-01 01:00N 53°24' W 003°00'0 0.0 1008.6 12.6 9.2
2016-Feb-01 00:00N 53°24' W 003°00'0 0.0 1008.5 13.3 9.6
2016-Jan-31 23:00N 53°24' W 003°00'0 0.0 1007.4 12.2 9.3
2016-Jan-31 22:00N 53°24' W 003°00'0 0.0 1006.9 13.2 9.5
2016-Jan-31 21:00N 53°24' W 003°00'0 0.0 1006.1 12.9 9.4
2016-Jan-31 20:00N 53°24' W 003°00'0 0.0 1005.3 12.7 9.5
2016-Jan-31 19:00N 53°24' W 003°00'0 0.0 1004.3 12.210.6
2016-Jan-31 18:00N 53°24' W 003°00'0 0.0 1003.7 11.310.6
2016-Jan-31 17:00N 53°24' W 003°00'0 0.0 1003.0 11.010.2
2016-Jan-31 16:00N 53°24' W 003°00'0 0.0 1002.6 11.310.1
2016-Jan-31 12:00N 53°24' W 003°00'0 0.0 1001.0 5.2 4.6
2016-Jan-31 08:00N 53°24' W 003°00'0 0.0 1003.6 4.2 2.1
2016-Jan-31 07:00N 53°24' W 003°00'0 0.0 1004.2 5.0 0.8
2016-Jan-31 06:00N 53°24' W 003°00'0 0.0 1004.9 5.6 0.3
2016-Jan-31 05:00N 53°24' W 003°00'0 0.0 1005.7 5.4 0.5
2016-Jan-31 04:00N 53°24' W 003°00'0 0.0 1006.4 4.6 0.1
2016-Jan-31 03:00N 53°24' W 003°00'0 0.0 1007.1 4.8-0.0
2016-Jan-31 02:00N 53°24' W 003°00'0 0.0 1007.7 5.0-0.3
2016-Jan-31 01:00N 53°24' W 003°00'0 0.0 1007.5 4.7-0.4
2016-Jan-31 00:00N 53°24' W 003°00'0 0.0 1007.3 4.7-0.9
2016-Jan-30 23:00N 53°24' W 003°00'0 0.0 1007.6 5.1-0.8
2016-Jan-30 22:00N 53°24' W 003°00'0 0.0 1007.1 5.1-1.1
2016-Jan-30 21:00N 53°24' W 003°00'0 0.0 1007.8 5.4-0.9
2016-Jan-30 20:00N 53°24' W 003°00'0 0.0 1007.6 5.4-0.9
2016-Jan-30 19:00N 53°24' W 003°00'0 0.0 1007.4 5.4-1.6
2016-Jan-30 17:00N 53°24' W 003°00'   1006.6 5.8-1.8

Dump ship's entire track history